createdAt,value
2018-03-31T00:00:37.191Z,82.66
2018-03-31T00:03:04.863Z,83.17
2018-03-31T00:05:31.943Z,83.28
2018-03-31T00:07:59.163Z,82.96
2018-03-31T00:10:26.251Z,83.42
2018-03-31T00:12:53.531Z,83.76
2018-03-31T00:15:20.718Z,83.43
2018-03-31T00:17:47.969Z,83.95
2018-03-31T00:20:15.051Z,83.74
2018-03-31T00:22:42.171Z,84.03
2018-03-31T00:25:09.303Z,83.86
2018-03-31T00:27:36.374Z,83.63
2018-03-31T00:30:04.456Z,83.88
2018-03-31T00:32:31.568Z,83.95
2018-03-31T00:34:58.732Z,83.84
2018-03-31T00:37:25.800Z,83.80
2018-03-31T00:39:52.955Z,83.45
2018-03-31T00:42:20.199Z,83.64
2018-03-31T00:44:47.331Z,84.05
2018-03-31T00:47:14.400Z,83.94
2018-03-31T00:49:41.649Z,83.81
2018-03-31T00:52:08.709Z,83.70
2018-03-31T00:54:35.851Z,84.19
2018-03-31T00:57:02.951Z,83.72
2018-03-31T00:59:30.087Z,84.46
2018-03-31T01:01:57.228Z,85.01
2018-03-31T01:04:24.339Z,84.57
2018-03-31T01:06:51.489Z,84.43
2018-03-31T01:09:18.553Z,84.73
2018-03-31T01:11:45.711Z,84.88
2018-03-31T01:14:12.826Z,85.07
2018-03-31T01:16:39.924Z,85.12
2018-03-31T01:19:07.051Z,85.27
2018-03-31T01:21:34.575Z,85.42
2018-03-31T01:24:01.866Z,85.20
2018-03-31T01:26:29.076Z,85.65
2018-03-31T01:28:56.245Z,85.97
2018-03-31T01:31:23.451Z,85.57
2018-03-31T01:33:50.514Z,85.27
2018-03-31T01:36:17.666Z,85.52
2018-03-31T01:38:44.915Z,86.54
2018-03-31T01:41:12.240Z,86.12
2018-03-31T01:43:39.493Z,86.03
2018-03-31T01:46:06.659Z,86.19
2018-03-31T01:48:33.868Z,86.35
2018-03-31T01:51:01.767Z,86.11
2018-03-31T01:53:28.919Z,86.24
2018-03-31T01:55:56.878Z,86.33
2018-03-31T01:58:24.066Z,86.07
2018-03-31T02:00:51.172Z,86.85
2018-03-31T02:03:18.222Z,86.47
2018-03-31T02:05:45.298Z,86.27
2018-03-31T02:08:12.478Z,85.99
2018-03-31T02:10:39.539Z,87.03
2018-03-31T02:13:06.641Z,87.08
2018-03-31T02:15:33.778Z,86.37
2018-03-31T02:18:01.017Z,86.13
2018-03-31T02:20:28.064Z,86.47
2018-03-31T02:22:55.939Z,86.54
2018-03-31T02:25:23.106Z,86.90
2018-03-31T02:27:50.459Z,86.78
2018-03-31T02:30:17.712Z,86.99
2018-03-31T02:32:44.862Z,87.19
2018-03-31T02:35:12.051Z,87.32
2018-03-31T02:37:39.146Z,87.43
2018-03-31T02:40:06.421Z,87.47
2018-03-31T02:42:33.594Z,87.16
2018-03-31T02:45:00.806Z,87.58
2018-03-31T02:47:27.969Z,87.10
2018-03-31T02:49:55.050Z,86.96
2018-03-31T02:52:22.171Z,87.29
2018-03-31T02:54:49.326Z,87.48
2018-03-31T02:57:16.371Z,87.34
2018-03-31T02:59:43.609Z,87.83
2018-03-31T03:02:10.814Z,87.56
2018-03-31T03:04:38.607Z,87.46
2018-03-31T03:07:05.704Z,87.82
2018-03-31T03:09:32.820Z,88.09
2018-03-31T03:12:00.036Z,88.03
2018-03-31T03:14:27.143Z,88.21
2018-03-31T03:16:54.402Z,87.85
2018-03-31T03:19:21.447Z,87.50
2018-03-31T03:21:48.557Z,87.26
2018-03-31T03:24:15.689Z,87.31
2018-03-31T03:26:42.924Z,87.36
2018-03-31T03:29:10.158Z,87.61
2018-03-31T03:31:37.248Z,88.01
2018-03-31T03:34:04.335Z,87.60
2018-03-31T03:36:31.609Z,87.21
2018-03-31T03:38:58.739Z,86.71
2018-03-31T03:41:25.919Z,86.93
2018-03-31T03:43:53.164Z,86.44
2018-03-31T03:46:20.367Z,86.38
2018-03-31T03:48:47.448Z,85.96
2018-03-31T03:51:14.560Z,86.15
2018-03-31T03:53:41.910Z,86.35
2018-03-31T03:56:09.029Z,86.19
2018-03-31T03:58:36.130Z,85.49
2018-03-31T04:01:03.175Z,85.35
2018-03-31T04:03:30.478Z,85.31
2018-03-31T04:05:57.823Z,84.53
2018-03-31T04:08:25.200Z,85.33
2018-03-31T04:10:52.340Z,85.42
2018-03-31T04:13:19.436Z,85.21
2018-03-31T04:15:46.635Z,85.02
2018-03-31T04:18:13.772Z,84.85
2018-03-31T04:20:40.851Z,85.10
2018-03-31T04:23:08.191Z,84.22
2018-03-31T04:25:35.260Z,84.14
2018-03-31T04:28:02.394Z,84.73
2018-03-31T04:30:29.491Z,84.56
2018-03-31T04:32:56.693Z,84.51
2018-03-31T04:35:24.027Z,84.42
2018-03-31T04:37:51.183Z,83.67
2018-03-31T04:40:18.350Z,84.00
2018-03-31T04:42:45.551Z,84.36
2018-03-31T04:45:12.600Z,83.90
2018-03-31T04:47:39.800Z,84.06
2018-03-31T04:50:06.890Z,83.52
2018-03-31T04:52:34.067Z,83.65
2018-03-31T04:55:01.270Z,83.32
2018-03-31T04:57:28.918Z,83.05
2018-03-31T04:59:55.980Z,83.84
2018-03-31T05:02:23.225Z,83.61
2018-03-31T05:04:50.356Z,83.59
2018-03-31T05:07:17.522Z,82.93
2018-03-31T05:09:44.672Z,82.96
2018-03-31T05:12:11.824Z,83.64
2018-03-31T05:14:38.892Z,82.92
2018-03-31T05:17:06.016Z,83.98
2018-03-31T05:19:33.379Z,82.65
2018-03-31T05:22:01.020Z,83.02
2018-03-31T05:24:28.067Z,82.72
2018-03-31T05:26:55.285Z,82.58
2018-03-31T05:29:22.380Z,82.49
2018-03-31T05:31:49.756Z,83.11
2018-03-31T05:34:16.913Z,81.68
2018-03-31T05:36:44.052Z,82.14
2018-03-31T05:39:11.289Z,81.79
2018-03-31T05:41:38.452Z,81.25
2018-03-31T05:44:05.713Z,82.55
2018-03-31T05:46:32.757Z,82.23
2018-03-31T05:48:59.812Z,81.45
2018-03-31T05:51:26.950Z,81.85
2018-03-31T05:53:54.119Z,80.98
2018-03-31T05:56:21.180Z,81.11
2018-03-31T05:58:48.282Z,80.97
2018-03-31T06:01:16.369Z,81.42
2018-03-31T06:03:43.499Z,81.55
2018-03-31T06:06:10.553Z,81.85
2018-03-31T06:08:37.731Z,81.32
2018-03-31T06:11:04.796Z,81.26
2018-03-31T06:13:31.849Z,80.46
2018-03-31T06:15:58.964Z,81.09
2018-03-31T06:18:26.235Z,81.15
2018-03-31T06:20:53.302Z,81.29
2018-03-31T06:23:20.363Z,81.21
2018-03-31T06:25:47.614Z,82.11
2018-03-31T06:28:14.659Z,82.04
2018-03-31T06:30:41.789Z,81.28
2018-03-31T06:33:08.868Z,80.67
2018-03-31T06:35:35.942Z,81.83
2018-03-31T06:38:03.122Z,80.73
2018-03-31T06:40:30.179Z,80.18
2018-03-31T06:42:57.358Z,80.84
2018-03-31T06:45:24.481Z,79.53
2018-03-31T06:47:51.751Z,80.50
2018-03-31T06:50:18.992Z,80.40
2018-03-31T06:52:46.781Z,79.53
2018-03-31T06:55:18.111Z,79.42
2018-03-31T06:57:45.358Z,79.06
2018-03-31T07:00:12.515Z,80.13
2018-03-31T07:02:39.659Z,79.93
2018-03-31T07:05:06.793Z,78.86
2018-03-31T07:07:34.001Z,79.65
2018-03-31T07:10:01.136Z,79.30
2018-03-31T07:12:28.227Z,78.79
2018-03-31T07:14:55.530Z,78.37
2018-03-31T07:17:22.586Z,77.60
2018-03-31T07:19:49.771Z,77.89
2018-03-31T07:22:17.094Z,77.40
2018-03-31T07:24:45.191Z,76.68
2018-03-31T07:27:12.311Z,77.19
2018-03-31T07:29:39.699Z,76.71
2018-03-31T07:32:06.801Z,75.81
2018-03-31T07:34:34.080Z,76.05
2018-03-31T07:37:01.324Z,76.36
2018-03-31T07:39:28.671Z,76.21
2018-03-31T07:41:57.459Z,76.37
2018-03-31T07:44:24.547Z,77.45
2018-03-31T07:46:51.743Z,76.36
2018-03-31T07:49:18.836Z,74.47
2018-03-31T07:51:46.060Z,76.08
2018-03-31T07:54:14.042Z,74.87
2018-03-31T07:56:42.358Z,75.04
2018-03-31T07:59:09.888Z,75.25
2018-03-31T08:01:37.130Z,75.21
2018-03-31T08:04:08.005Z,73.98
2018-03-31T08:06:35.209Z,74.07
2018-03-31T08:09:02.362Z,74.26
2018-03-31T08:11:29.519Z,73.18
2018-03-31T08:13:56.767Z,72.49
2018-03-31T08:16:23.922Z,73.85
2018-03-31T08:18:51.615Z,72.86
2018-03-31T08:21:18.666Z,73.09
2018-03-31T08:23:45.781Z,73.07
2018-03-31T08:26:12.865Z,73.09
2018-03-31T08:28:40.041Z,73.05
2018-03-31T08:31:09.205Z,72.61
2018-03-31T08:33:37.333Z,72.81
2018-03-31T08:36:04.608Z,73.97
2018-03-31T08:38:31.703Z,73.42
2018-03-31T08:40:58.785Z,74.24
2018-03-31T08:43:27.288Z,75.73
2018-03-31T08:45:54.440Z,75.15
2018-03-31T08:48:21.640Z,76.50
2018-03-31T08:50:48.847Z,76.97
2018-03-31T08:53:16.772Z,77.20
2018-03-31T08:55:43.844Z,77.58
2018-03-31T08:58:10.934Z,79.27
2018-03-31T09:00:38.057Z,78.97
2018-03-31T09:03:05.251Z,78.81
2018-03-31T09:05:32.878Z,79.95
2018-03-31T09:08:02.189Z,79.87
2018-03-31T09:10:29.335Z,81.39
2018-03-31T09:12:56.480Z,81.59
2018-03-31T09:15:23.739Z,82.23
2018-03-31T09:17:51.921Z,81.41
2018-03-31T09:20:19.020Z,82.48
2018-03-31T09:22:46.211Z,84.44
2018-03-31T09:25:13.380Z,83.18
2018-03-31T09:27:40.513Z,84.17
2018-03-31T09:30:07.633Z,84.90
2018-03-31T09:32:34.917Z,84.66
2018-03-31T09:35:02.157Z,85.14
2018-03-31T09:37:29.327Z,86.48
2018-03-31T09:39:56.421Z,85.69
2018-03-31T09:42:23.490Z,86.66
2018-03-31T09:44:50.620Z,86.26
2018-03-31T09:47:18.263Z,86.91
2018-03-31T09:49:45.384Z,86.85
2018-03-31T09:52:12.535Z,85.97
2018-03-31T09:54:39.699Z,84.44
2018-03-31T09:57:07.101Z,84.66
2018-03-31T09:59:34.208Z,86.17
